sensor_id;sensor_type;location;lat;lon;timestamp;pressure;altitude;pressure_sealevel;temperature;humidity
19783;BME280;10051;40.294;-3.754;2023-01-28T00:00:06;94134.81;;;3.78;53.27
19783;BME280;10051;40.294;-3.754;2023-01-28T00:02:34;94198.81;;;4.13;53.38
19783;BME280;10051;40.294;-3.754;2023-01-28T00:04:59;94175.00;;;3.87;54.02
19783;BME280;10051;40.294;-3.754;2023-01-28T00:07:25;94208.75;;;3.99;54.30
19783;BME280;10051;40.294;-3.754;2023-01-28T00:09:51;94164.50;;;3.65;55.13
19783;BME280;10051;40.294;-3.754;2023-01-28T00:12:16;94208.75;;;3.99;54.92
19783;BME280;10051;40.294;-3.754;2023-01-28T00:14:42;94208.75;;;3.99;55.02
19783;BME280;10051;40.294;-3.754;2023-01-28T00:17:07;94208.75;;;3.82;55.83
19783;BME280;10051;40.294;-3.754;2023-01-28T00:19:33;94062.66;;;2.76;55.80
19783;BME280;10051;40.294;-3.754;2023-01-28T00:21:59;94119.00;;;3.04;55.93
19783;BME280;10051;40.294;-3.754;2023-01-28T00:24:24;94170.16;;;3.33;56.67
19783;BME280;10051;40.294;-3.754;2023-01-28T00:26:50;94107.44;;;2.83;56.91
19783;BME280;10051;40.294;-3.754;2023-01-28T00:29:16;94104.84;;;2.83;56.72
19783;BME280;10051;40.294;-3.754;2023-01-28T00:31:44;94204.41;;;3.41;57.23
19783;BME280;10051;40.294;-3.754;2023-01-28T00:34:10;94237.94;;;3.43;58.32
19783;BME280;10051;40.294;-3.754;2023-01-28T00:36:35;94155.22;;;2.82;58.45
19783;BME280;10051;40.294;-3.754;2023-01-28T00:39:04;94134.59;;;2.63;58.41
19783;BME280;10051;40.294;-3.754;2023-01-28T00:41:30;94156.13;;;2.76;59.08
19783;BME280;10051;40.294;-3.754;2023-01-28T00:43:56;94111.03;;;2.41;59.30
19783;BME280;10051;40.294;-3.754;2023-01-28T00:46:22;94228.09;;;3.16;59.78
19783;BME280;10051;40.294;-3.754;2023-01-28T00:48:51;94233.75;;;3.13;59.27
19783;BME280;10051;40.294;-3.754;2023-01-28T00:51:18;94072.84;;;2.01;59.79
19783;BME280;10051;40.294;-3.754;2023-01-28T00:53:50;94194.72;;;2.84;59.55
19783;BME280;10051;40.294;-3.754;2023-01-28T00:56:17;94239.53;;;3.03;60.31
19783;BME280;10051;40.294;-3.754;2023-01-28T00:58:46;94237.03;;;3.08;60.14
19783;BME280;10051;40.294;-3.754;2023-01-28T01:01:15;94150.84;;;2.47;60.78
19783;BME280;10051;40.294;-3.754;2023-01-28T01:03:42;94188.97;;;2.70;60.66
19783;BME280;10051;40.294;-3.754;2023-01-28T01:06:08;94190.13;;;2.62;61.53
19783;BME280;10051;40.294;-3.754;2023-01-28T01:08:34;94238.41;;;2.87;61.55
19783;BME280;10051;40.294;-3.754;2023-01-28T01:11:01;94132.38;;;2.19;61.69
19783;BME280;10051;40.294;-3.754;2023-01-28T01:13:27;94127.28;;;2.13;61.76
19783;BME280;10051;40.294;-3.754;2023-01-28T01:16:05;94225.09;;;2.83;61.65
19783;BME280;10051;40.294;-3.754;2023-01-28T01:18:32;94225.91;;;2.84;61.82
19783;BME280;10051;40.294;-3.754;2023-01-28T01:20:58;94238.78;;;2.79;62.08
19783;BME280;10051;40.294;-3.754;2023-01-28T01:23:29;94102.38;;;2.00;61.78
19783;BME280;10051;40.294;-3.754;2023-01-28T01:25:55;94156.28;;;2.33;61.32
19783;BME280;10051;40.294;-3.754;2023-01-28T01:28:21;94234.25;;;2.86;61.40
19783;BME280;10051;40.294;-3.754;2023-01-28T01:30:47;94241.91;;;2.93;61.31
19783;BME280;10051;40.294;-3.754;2023-01-28T01:33:14;94237.28;;;2.95;61.07
19783;BME280;10051;40.294;-3.754;2023-01-28T01:35:39;94195.88;;;2.64;60.77
19783;BME280;10051;40.294;-3.754;2023-01-28T01:38:05;94246.69;;;2.84;61.13
19783;BME280;10051;40.294;-3.754;2023-01-28T01:40:31;94220.59;;;2.79;60.99
19783;BME280;10051;40.294;-3.754;2023-01-28T01:42:57;94080.50;;;1.84;60.92
19783;BME280;10051;40.294;-3.754;2023-01-28T01:45:22;94227.38;;;2.80;61.61
19783;BME280;10051;40.294;-3.754;2023-01-28T01:48:04;94232.19;;;2.88;60.80
19783;BME280;10051;40.294;-3.754;2023-01-28T01:53:03;94148.06;;;2.36;60.60
19783;BME280;10051;40.294;-3.754;2023-01-28T01:55:34;94170.91;;;2.75;60.01
19783;BME280;10051;40.294;-3.754;2023-01-28T01:58:04;94173.75;;;2.74;60.09
19783;BME280;10051;40.294;-3.754;2023-01-28T02:00:31;94026.50;;;1.69;59.76
19783;BME280;10051;40.294;-3.754;2023-01-28T02:02:56;94208.81;;;3.00;59.73
19783;BME280;10051;40.294;-3.754;2023-01-28T02:05:23;94117.91;;;2.47;60.23
19783;BME280;10051;40.294;-3.754;2023-01-28T02:07:52;94254.34;;;3.44;59.43
19783;BME280;10051;40.294;-3.754;2023-01-28T02:10:42;94117.47;;;2.50;59.69
19783;BME280;10051;40.294;-3.754;2023-01-28T02:13:08;94179.91;;;2.96;59.32
19783;BME280;10051;40.294;-3.754;2023-01-28T02:15:34;94249.16;;;3.32;59.76
19783;BME280;10051;40.294;-3.754;2023-01-28T02:18:00;94207.22;;;3.11;59.78
19783;BME280;10051;40.294;-3.754;2023-01-28T02:20:58;94206.56;;;3.33;59.01
19783;BME280;10051;40.294;-3.754;2023-01-28T02:29:16;94251.50;;;3.45;58.83
19783;BME280;10051;40.294;-3.754;2023-01-28T02:31:53;94241.97;;;3.22;59.06
19783;BME280;10051;40.294;-3.754;2023-01-28T02:34:34;94255.63;;;3.29;58.59
19783;BME280;10051;40.294;-3.754;2023-01-28T02:37:15;94197.28;;;3.08;57.36
19783;BME280;10051;40.294;-3.754;2023-01-28T02:39:50;94197.31;;;2.96;58.03
19783;BME280;10051;40.294;-3.754;2023-01-28T02:42:23;94247.72;;;3.24;58.09
19783;BME280;10051;40.294;-3.754;2023-01-28T02:44:51;94231.25;;;3.18;57.75
19783;BME280;10051;40.294;-3.754;2023-01-28T02:47:16;94194.47;;;2.97;57.52
19783;BME280;10051;40.294;-3.754;2023-01-28T02:50:10;94230.13;;;3.14;57.91
19783;BME280;10051;40.294;-3.754;2023-01-28T02:52:59;94252.72;;;3.25;58.14
19783;BME280;10051;40.294;-3.754;2023-01-28T03:01:56;94250.03;;;2.96;58.22
19783;BME280;10051;40.294;-3.754;2023-01-28T03:04:30;94197.59;;;2.59;58.73
19783;BME280;10051;40.294;-3.754;2023-01-28T03:07:02;94221.16;;;2.81;58.48
19783;BME280;10051;40.294;-3.754;2023-01-28T03:09:30;94230.41;;;2.89;58.77
19783;BME280;10051;40.294;-3.754;2023-01-28T03:12:09;94246.97;;;3.00;59.05
19783;BME280;10051;40.294;-3.754;2023-01-28T03:15:19;94240.09;;;2.93;58.40
19783;BME280;10051;40.294;-3.754;2023-01-28T03:18:17;94249.28;;;2.84;58.89
19783;BME280;10051;40.294;-3.754;2023-01-28T03:21:33;94248.94;;;2.80;59.43
19783;BME280;10051;40.294;-3.754;2023-01-28T03:24:29;94231.09;;;2.60;59.56
19783;BME280;10051;40.294;-3.754;2023-01-28T03:30:36;94207.63;;;2.31;60.13
19783;BME280;10051;40.294;-3.754;2023-01-28T03:33:22;94157.53;;;1.95;60.25
19783;BME280;10051;40.294;-3.754;2023-01-28T03:36:07;94206.13;;;2.23;60.55
19783;BME280;10051;40.294;-3.754;2023-01-28T03:38:52;94230.31;;;2.36;60.55
19783;BME280;10051;40.294;-3.754;2023-01-28T03:41:22;94193.94;;;2.00;61.17
19783;BME280;10051;40.294;-3.754;2023-01-28T03:43:49;94139.66;;;1.63;61.02
19783;BME280;10051;40.294;-3.754;2023-01-28T03:46:15;94206.25;;;1.93;61.70
19783;BME280;10051;40.294;-3.754;2023-01-28T03:48:41;94072.59;;;1.12;61.37
19783;BME280;10051;40.294;-3.754;2023-01-28T03:51:06;94167.53;;;1.80;61.22
19783;BME280;10051;40.294;-3.754;2023-01-28T03:53:32;94180.44;;;1.98;61.29
19783;BME280;10051;40.294;-3.754;2023-01-28T03:55:58;94130.09;;;1.75;60.67
19783;BME280;10051;40.294;-3.754;2023-01-28T03:58:24;94142.63;;;2.02;60.25
19783;BME280;10051;40.294;-3.754;2023-01-28T04:01:09;94229.31;;;2.61;59.56
19783;BME280;10051;40.294;-3.754;2023-01-28T04:03:34;94191.81;;;2.45;59.20
19783;BME280;10051;40.294;-3.754;2023-01-28T04:06:03;94094.16;;;1.91;59.32
19783;BME280;10051;40.294;-3.754;2023-01-28T04:08:29;94231.56;;;2.81;58.88
19783;BME280;10051;40.294;-3.754;2023-01-28T04:10:55;94225.78;;;2.79;58.74
19783;BME280;10051;40.294;-3.754;2023-01-28T04:13:21;94232.53;;;2.92;58.72
19783;BME280;10051;40.294;-3.754;2023-01-28T04:15:47;94239.69;;;2.73;58.98
19783;BME280;10051;40.294;-3.754;2023-01-28T04:18:13;94218.91;;;2.73;59.06
19783;BME280;10051;40.294;-3.754;2023-01-28T04:20:41;94197.91;;;2.62;58.86
19783;BME280;10051;40.294;-3.754;2023-01-28T04:23:06;94214.72;;;2.83;58.59
19783;BME280;10051;40.294;-3.754;2023-01-28T04:25:33;94228.13;;;2.92;58.84
19783;BME280;10051;40.294;-3.754;2023-01-28T04:27:59;94213.25;;;2.76;59.22
19783;BME280;10051;40.294;-3.754;2023-01-28T04:30:24;94221.16;;;2.81;58.93
19783;BME280;10051;40.294;-3.754;2023-01-28T04:32:50;94196.41;;;2.78;58.79
19783;BME280;10051;40.294;-3.754;2023-01-28T04:35:16;94140.84;;;2.38;58.84
19783;BME280;10051;40.294;-3.754;2023-01-28T04:37:42;94224.31;;;2.83;59.39
19783;BME280;10051;40.294;-3.754;2023-01-28T04:40:09;94231.66;;;2.74;59.92
19783;BME280;10051;40.294;-3.754;2023-01-28T04:42:35;94195.53;;;2.49;59.78
19783;BME280;10051;40.294;-3.754;2023-01-28T04:45:01;94232.34;;;2.46;60.51
19783;BME280;10051;40.294;-3.754;2023-01-28T04:47:26;94184.25;;;2.07;61.17
19783;BME280;10051;40.294;-3.754;2023-01-28T04:49:52;94189.09;;;1.92;61.64
19783;BME280;10051;40.294;-3.754;2023-01-28T04:52:18;94179.94;;;1.77;62.38
19783;BME280;10051;40.294;-3.754;2023-01-28T04:54:43;94188.72;;;1.88;62.11
19783;BME280;10051;40.294;-3.754;2023-01-28T04:57:09;94238.53;;;2.21;62.07
19783;BME280;10051;40.294;-3.754;2023-01-28T04:59:34;94191.34;;;2.00;61.59
19783;BME280;10051;40.294;-3.754;2023-01-28T05:02:00;94181.31;;;2.04;61.04
19783;BME280;10051;40.294;-3.754;2023-01-28T05:04:26;94191.13;;;2.14;61.12
19783;BME280;10051;40.294;-3.754;2023-01-28T05:06:51;94195.88;;;2.17;60.90
19783;BME280;10051;40.294;-3.754;2023-01-28T05:09:17;94187.41;;;2.10;60.84
19783;BME280;10051;40.294;-3.754;2023-01-28T05:11:43;94216.88;;;2.27;60.95
19783;BME280;10051;40.294;-3.754;2023-01-28T05:14:08;94192.03;;;2.07;61.25
19783;BME280;10051;40.294;-3.754;2023-01-28T05:16:34;94169.63;;;1.59;61.81
19783;BME280;10051;40.294;-3.754;2023-01-28T05:19:00;94212.66;;;1.90;62.10
19783;BME280;10051;40.294;-3.754;2023-01-28T05:21:26;94137.91;;;1.33;61.93
19783;BME280;10051;40.294;-3.754;2023-01-28T05:23:52;94248.75;;;2.04;62.47
19783;BME280;10051;40.294;-3.754;2023-01-28T05:26:18;94171.75;;;1.19;63.41
19783;BME280;10051;40.294;-3.754;2023-01-28T05:28:43;94177.72;;;1.20;64.40
19783;BME280;10051;40.294;-3.754;2023-01-28T05:31:09;94148.47;;;1.01;64.09
19783;BME280;10051;40.294;-3.754;2023-01-28T05:33:35;94256.97;;;1.89;63.65
19783;BME280;10051;40.294;-3.754;2023-01-28T05:36:01;94265.50;;;1.77;64.14
19783;BME280;10051;40.294;-3.754;2023-01-28T05:38:26;94231.38;;;1.62;64.18
19783;BME280;10051;40.294;-3.754;2023-01-28T05:40:52;94256.97;;;1.89;64.30
19783;BME280;10051;40.294;-3.754;2023-01-28T05:43:18;94191.34;;;1.46;63.85
19783;BME280;10051;40.294;-3.754;2023-01-28T05:45:43;94213.75;;;1.71;63.50
19783;BME280;10051;40.294;-3.754;2023-01-28T05:48:09;94261.06;;;2.08;63.48
19783;BME280;10051;40.294;-3.754;2023-01-28T05:50:35;94139.78;;;1.26;63.43
19783;BME280;10051;40.294;-3.754;2023-01-28T05:53:04;94271.00;;;2.12;63.48
19783;BME280;10051;40.294;-3.754;2023-01-28T05:55:30;94169.69;;;1.40;63.87
19783;BME280;10051;40.294;-3.754;2023-01-28T05:57:55;94243.06;;;1.83;64.19
19783;BME280;10051;40.294;-3.754;2023-01-28T06:00:21;94228.06;;;1.73;64.60
19783;BME280;10051;40.294;-3.754;2023-01-28T06:02:46;94173.44;;;1.44;64.07
19783;BME280;10051;40.294;-3.754;2023-01-28T06:05:12;94154.34;;;1.39;63.82
19783;BME280;10051;40.294;-3.754;2023-01-28T06:07:38;94168.25;;;1.44;63.62
19783;BME280;10051;40.294;-3.754;2023-01-28T06:10:04;94151.88;;;1.44;63.56
19783;BME280;10051;40.294;-3.754;2023-01-28T06:12:29;94243.22;;;2.00;63.66
19783;BME280;10051;40.294;-3.754;2023-01-28T06:14:55;94237.25;;;2.00;63.51
19783;BME280;10051;40.294;-3.754;2023-01-28T06:17:21;94191.41;;;1.70;63.89
19783;BME280;10051;40.294;-3.754;2023-01-28T06:19:46;94189.47;;;1.65;64.09
19783;BME280;10051;40.294;-3.754;2023-01-28T06:22:12;94174.56;;;1.48;63.55
19783;BME280;10051;40.294;-3.754;2023-01-28T06:24:37;94187.03;;;1.40;64.29
19783;BME280;10051;40.294;-3.754;2023-01-28T06:27:03;94179.78;;;1.30;64.52
19783;BME280;10051;40.294;-3.754;2023-01-28T06:29:29;94180.69;;;1.36;64.17
19783;BME280;10051;40.294;-3.754;2023-01-28T06:31:54;94169.84;;;1.27;64.06
19783;BME280;10051;40.294;-3.754;2023-01-28T06:34:20;94244.03;;;1.70;63.99
19783;BME280;10051;40.294;-3.754;2023-01-28T06:36:45;94254.94;;;1.91;63.88
19783;BME280;10051;40.294;-3.754;2023-01-28T06:39:11;94242.19;;;1.89;63.70
19783;BME280;10051;40.294;-3.754;2023-01-28T06:41:37;94176.94;;;1.50;63.07
19783;BME280;10051;40.294;-3.754;2023-01-28T06:44:02;94274.28;;;2.19;63.15
19783;BME280;10051;40.294;-3.754;2023-01-28T06:46:28;94216.00;;;1.79;62.78
19783;BME280;10051;40.294;-3.754;2023-01-28T06:48:54;94239.13;;;1.81;62.60
19783;BME280;10051;40.294;-3.754;2023-01-28T06:51:19;94182.09;;;1.50;62.63
19783;BME280;10051;40.294;-3.754;2023-01-28T06:53:45;94247.16;;;1.91;63.73
19783;BME280;10051;40.294;-3.754;2023-01-28T06:56:10;94207.16;;;1.56;64.30
19783;BME280;10051;40.294;-3.754;2023-01-28T06:58:36;94268.91;;;1.90;64.24
19783;BME280;10051;40.294;-3.754;2023-01-28T07:01:02;94282.03;;;1.95;64.54
19783;BME280;10051;40.294;-3.754;2023-01-28T07:03:28;94187.28;;;1.19;64.71
19783;BME280;10051;40.294;-3.754;2023-01-28T07:05:54;94275.69;;;1.60;65.51
19783;BME280;10051;40.294;-3.754;2023-01-28T07:08:19;94297.75;;;1.82;65.27
19783;BME280;10051;40.294;-3.754;2023-01-28T07:10:45;94307.31;;;1.81;65.03
19783;BME280;10051;40.294;-3.754;2023-01-28T07:13:11;94233.63;;;1.28;65.60
19783;BME280;10051;40.294;-3.754;2023-01-28T07:15:37;94301.06;;;1.70;65.55
19783;BME280;10051;40.294;-3.754;2023-01-28T07:18:02;94303.19;;;1.61;65.76
19783;BME280;10051;40.294;-3.754;2023-01-28T07:20:28;94283.72;;;1.40;65.86
19783;BME280;10051;40.294;-3.754;2023-01-28T07:22:53;94316.22;;;1.55;65.96
19783;BME280;10051;40.294;-3.754;2023-01-28T07:25:22;94282.28;;;1.26;66.20
19783;BME280;10051;40.294;-3.754;2023-01-28T07:27:49;94211.22;;;0.84;66.67
19783;BME280;10051;40.294;-3.754;2023-01-28T07:30:16;94238.81;;;0.72;67.70
19783;BME280;10051;40.294;-3.754;2023-01-28T07:32:43;94219.41;;;0.63;67.84
19783;BME280;10051;40.294;-3.754;2023-01-28T07:35:09;94314.75;;;1.28;67.67
19783;BME280;10051;40.294;-3.754;2023-01-28T07:37:34;94286.75;;;1.00;67.36
19783;BME280;10051;40.294;-3.754;2023-01-28T07:40:00;94175.22;;;0.20;67.76
19783;BME280;10051;40.294;-3.754;2023-01-28T07:42:26;94330.94;;;1.42;67.30
19783;BME280;10051;40.294;-3.754;2023-01-28T07:44:51;94339.91;;;1.40;66.90
19783;BME280;10051;40.294;-3.754;2023-01-28T07:47:17;94265.88;;;0.95;67.27
19783;BME280;10051;40.294;-3.754;2023-01-28T07:49:43;94303.22;;;1.06;68.14
19783;BME280;10051;40.294;-3.754;2023-01-28T07:52:09;94258.19;;;0.88;68.35
19783;BME280;10051;40.294;-3.754;2023-01-28T07:54:35;94336.94;;;1.55;67.65
19783;BME280;10051;40.294;-3.754;2023-01-28T07:57:01;94296.38;;;0.93;67.82
19783;BME280;10051;40.294;-3.754;2023-01-28T07:59:26;94158.53;;;0.16;67.92
19783;BME280;10051;40.294;-3.754;2023-01-28T08:01:52;94313.63;;;1.17;67.70
19783;BME280;10051;40.294;-3.754;2023-01-28T08:04:20;94209.91;;;0.56;67.27
19783;BME280;10051;40.294;-3.754;2023-01-28T08:06:46;94348.34;;;1.54;67.59
19783;BME280;10051;40.294;-3.754;2023-01-28T08:09:11;94334.44;;;1.48;66.85
19783;BME280;10051;40.294;-3.754;2023-01-28T08:11:37;94323.31;;;1.47;67.11
19783;BME280;10051;40.294;-3.754;2023-01-28T08:14:04;94288.03;;;1.28;66.61
19783;BME280;10051;40.294;-3.754;2023-01-28T08:16:30;94142.53;;;0.26;66.51
19783;BME280;10051;40.294;-3.754;2023-01-28T08:18:55;94197.25;;;0.67;66.12
19783;BME280;10051;40.294;-3.754;2023-01-28T08:21:21;94294.78;;;1.29;65.94
19783;BME280;10051;40.294;-3.754;2023-01-28T08:23:47;94191.44;;;0.71;65.30
19783;BME280;10051;40.294;-3.754;2023-01-28T08:26:13;94344.53;;;1.56;65.52
19783;BME280;10051;40.294;-3.754;2023-01-28T08:28:38;94244.44;;;1.06;64.88
19783;BME280;10051;40.294;-3.754;2023-01-28T08:31:04;94313.59;;;1.73;64.51
19783;BME280;10051;40.294;-3.754;2023-01-28T08:33:30;94202.13;;;1.12;64.07
19783;BME280;10051;40.294;-3.754;2023-01-28T08:35:56;94297.88;;;1.87;64.01
19783;BME280;10051;40.294;-3.754;2023-01-28T08:38:21;94242.63;;;1.56;63.82
19783;BME280;10051;40.294;-3.754;2023-01-28T08:40:47;94357.59;;;2.41;62.65
19783;BME280;10051;40.294;-3.754;2023-01-28T08:43:20;94334.94;;;2.60;62.30
19783;BME280;10051;40.294;-3.754;2023-01-28T08:45:45;94342.88;;;2.89;60.71
19783;BME280;10051;40.294;-3.754;2023-01-28T08:48:14;94249.16;;;2.43;60.00
19783;BME280;10051;40.294;-3.754;2023-01-28T08:50:40;94352.03;;;3.16;59.70
19783;BME280;10051;40.294;-3.754;2023-01-28T08:53:17;94210.09;;;2.26;59.45
19783;BME280;10051;40.294;-3.754;2023-01-28T08:55:44;94199.59;;;2.21;58.62
19783;BME280;10051;40.294;-3.754;2023-01-28T08:58:14;94397.53;;;3.66;58.85
19783;BME280;10051;40.294;-3.754;2023-01-28T09:00:41;94244.19;;;2.77;57.64
19783;BME280;10051;40.294;-3.754;2023-01-28T09:03:07;94399.06;;;3.91;57.59
19783;BME280;10051;40.294;-3.754;2023-01-28T09:05:34;94218.13;;;2.60;57.56
19783;BME280;10051;40.294;-3.754;2023-01-28T09:08:10;94274.44;;;2.95;58.12
19783;BME280;10051;40.294;-3.754;2023-01-28T09:10:44;94295.88;;;3.26;57.60
19783;BME280;10051;40.294;-3.754;2023-01-28T09:13:19;94220.13;;;2.70;56.73
19783;BME280;10051;40.294;-3.754;2023-01-28T09:15:45;94257.47;;;3.05;56.70
19783;BME280;10051;40.294;-3.754;2023-01-28T09:18:10;94226.34;;;2.81;56.84
19783;BME280;10051;40.294;-3.754;2023-01-28T09:20:37;94352.41;;;3.72;56.79
19783;BME280;10051;40.294;-3.754;2023-01-28T09:23:03;94229.47;;;3.07;54.96
19783;BME280;10051;40.294;-3.754;2023-01-28T09:25:29;94248.34;;;3.02;55.04
19783;BME280;10051;40.294;-3.754;2023-01-28T09:27:54;94244.34;;;3.23;55.18
19783;BME280;10051;40.294;-3.754;2023-01-28T09:30:20;94415.84;;;4.53;54.06
19783;BME280;10051;40.294;-3.754;2023-01-28T09:32:53;94405.16;;;4.83;53.42
19783;BME280;10051;40.294;-3.754;2023-01-28T09:35:19;94279.84;;;3.87;53.53
19783;BME280;10051;40.294;-3.754;2023-01-28T09:37:45;94341.88;;;4.37;52.40
19783;BME280;10051;40.294;-3.754;2023-01-28T09:40:24;94339.25;;;4.37;52.72
19783;BME280;10051;40.294;-3.754;2023-01-28T09:45:39;94416.03;;;5.31;51.48
19783;BME280;10051;40.294;-3.754;2023-01-28T09:48:12;94362.56;;;5.12;51.70
19783;BME280;10051;40.294;-3.754;2023-01-28T09:50:41;94406.84;;;5.46;51.58
19783;BME280;10051;40.294;-3.754;2023-01-28T09:53:29;94376.28;;;5.24;50.07
19783;BME280;10051;40.294;-3.754;2023-01-28T09:56:05;94323.81;;;4.98;50.13
19783;BME280;10051;40.294;-3.754;2023-01-28T09:58:32;94347.06;;;5.22;50.63
19783;BME280;10051;40.294;-3.754;2023-01-28T10:14:47;94427.75;;;6.30;49.78
19783;BME280;10051;40.294;-3.754;2023-01-28T10:17:18;94430.13;;;6.59;48.18
19783;BME280;10051;40.294;-3.754;2023-01-28T10:19:50;94413.72;;;6.36;47.70
19783;BME280;10051;40.294;-3.754;2023-01-28T10:22:22;94426.03;;;6.68;48.57
19783;BME280;10051;40.294;-3.754;2023-01-28T10:24:54;94433.78;;;6.85;48.33
19783;BME280;10051;40.294;-3.754;2023-01-28T10:27:27;94406.59;;;6.86;47.05
19783;BME280;10051;40.294;-3.754;2023-01-28T10:29:58;94365.13;;;6.35;47.64
19783;BME280;10051;40.294;-3.754;2023-01-28T10:32:37;94348.41;;;6.36;46.63
19783;BME280;10051;40.294;-3.754;2023-01-28T10:35:07;94308.22;;;5.87;47.28
19783;BME280;10051;40.294;-3.754;2023-01-28T10:37:34;94278.78;;;5.70;46.81
19783;BME280;10051;40.294;-3.754;2023-01-28T10:40:02;94267.97;;;5.83;46.80
19783;BME280;10051;40.294;-3.754;2023-01-28T10:42:30;94415.94;;;7.09;46.16
19783;BME280;10051;40.294;-3.754;2023-01-28T10:45:01;94412.38;;;7.21;45.68
19783;BME280;10051;40.294;-3.754;2023-01-28T10:47:43;94339.72;;;6.90;46.13
19783;BME280;10051;40.294;-3.754;2023-01-28T10:50:22;94423.09;;;7.62;45.38
19783;BME280;10051;40.294;-3.754;2023-01-28T10:52:56;94227.09;;;6.54;45.47
19783;BME280;10051;40.294;-3.754;2023-01-28T10:55:23;94324.56;;;7.35;44.87
19783;BME280;10051;40.294;-3.754;2023-01-28T10:57:51;94431.47;;;8.12;44.60
19783;BME280;10051;40.294;-3.754;2023-01-28T11:00:27;94436.50;;;8.29;44.65
19783;BME280;10051;40.294;-3.754;2023-01-28T11:02:55;94340.13;;;7.63;43.81
19783;BME280;10051;40.294;-3.754;2023-01-28T11:05:24;94426.72;;;8.09;43.37
19783;BME280;10051;40.294;-3.754;2023-01-28T11:08:12;94393.38;;;7.89;43.13
19783;BME280;10051;40.294;-3.754;2023-01-28T11:10:39;94411.22;;;7.92;43.79
19783;BME280;10051;40.294;-3.754;2023-01-28T11:13:15;94425.00;;;8.41;43.84
19783;BME280;10051;40.294;-3.754;2023-01-28T11:15:48;94418.22;;;8.45;43.41
19783;BME280;10051;40.294;-3.754;2023-01-28T11:18:23;94410.34;;;8.40;43.01
19783;BME280;10051;40.294;-3.754;2023-01-28T11:20:56;94419.06;;;8.66;42.57
19783;BME280;10051;40.294;-3.754;2023-01-28T11:23:31;94416.75;;;8.85;42.08
19783;BME280;10051;40.294;-3.754;2023-01-28T11:26:34;94401.03;;;9.01;42.80
19783;BME280;10051;40.294;-3.754;2023-01-28T11:28:58;94386.06;;;9.12;41.77
19783;BME280;10051;40.294;-3.754;2023-01-28T11:31:25;94377.13;;;8.97;41.63
19783;BME280;10051;40.294;-3.754;2023-01-28T11:33:54;94393.66;;;9.39;41.76
19783;BME280;10051;40.294;-3.754;2023-01-28T11:36:29;94354.06;;;9.25;40.58
19783;BME280;10051;40.294;-3.754;2023-01-28T11:39:13;94318.88;;;9.26;39.75
19783;BME280;10051;40.294;-3.754;2023-01-28T11:41:40;94289.28;;;8.95;39.69
19783;BME280;10051;40.294;-3.754;2023-01-28T11:51:57;94366.44;;;10.01;39.93
19783;BME280;10051;40.294;-3.754;2023-01-28T11:57:18;94364.19;;;10.39;38.63
19783;BME280;10051;40.294;-3.754;2023-01-28T11:59:58;94346.81;;;10.33;37.86
19783;BME280;10051;40.294;-3.754;2023-01-28T12:02:50;94359.06;;;10.08;38.22
19783;BME280;10051;40.294;-3.754;2023-01-28T12:13:11;94334.59;;;10.12;37.06
19783;BME280;10051;40.294;-3.754;2023-01-28T12:15:54;94337.06;;;10.44;36.91
19783;BME280;10051;40.294;-3.754;2023-01-28T12:27:25;94329.81;;;10.65;36.59
19783;BME280;10051;40.294;-3.754;2023-01-28T12:30:02;94331.50;;;10.85;36.12
19783;BME280;10051;40.294;-3.754;2023-01-28T12:33:02;94303.13;;;10.82;36.07
19783;BME280;10051;40.294;-3.754;2023-01-28T12:41:15;94316.53;;;11.15;34.29
19783;BME280;10051;40.294;-3.754;2023-01-28T12:44:03;94283.44;;;11.09;34.46
19783;BME280;10051;40.294;-3.754;2023-01-28T12:46:44;94278.31;;;10.93;34.31
19783;BME280;10051;40.294;-3.754;2023-01-28T12:49:29;94254.72;;;10.83;34.53
19783;BME280;10051;40.294;-3.754;2023-01-28T12:52:04;94305.03;;;11.35;33.99
19783;BME280;10051;40.294;-3.754;2023-01-28T12:57:03;94267.09;;;11.12;33.81
19783;BME280;10051;40.294;-3.754;2023-01-28T12:59:38;94307.09;;;11.38;33.19
19783;BME280;10051;40.294;-3.754;2023-01-28T13:09:37;94282.78;;;11.22;33.64
19783;BME280;10051;40.294;-3.754;2023-01-28T13:12:08;94238.28;;;10.96;33.88
19783;BME280;10051;40.294;-3.754;2023-01-28T13:14:34;94202.72;;;10.75;33.56
19783;BME280;10051;40.294;-3.754;2023-01-28T13:17:33;94244.78;;;11.04;33.39
19783;BME280;10051;40.294;-3.754;2023-01-28T13:19:59;94186.31;;;10.59;34.09
19783;BME280;10051;40.294;-3.754;2023-01-28T13:22:33;94263.84;;;11.44;33.57
19783;BME280;10051;40.294;-3.754;2023-01-28T13:25:22;94264.59;;;11.69;33.11
19783;BME280;10051;40.294;-3.754;2023-01-28T13:28:05;94165.53;;;11.11;32.77
19783;BME280;10051;40.294;-3.754;2023-01-28T13:30:33;94236.50;;;11.65;32.55
19783;BME280;10051;40.294;-3.754;2023-01-28T13:33:02;94222.06;;;11.38;33.13
19783;BME280;10051;40.294;-3.754;2023-01-28T13:35:36;94256.41;;;11.71;33.33
19783;BME280;10051;40.294;-3.754;2023-01-28T13:38:20;94162.84;;;10.92;33.41
19783;BME280;10051;40.294;-3.754;2023-01-28T13:40:55;94212.78;;;11.21;33.80
19783;BME280;10051;40.294;-3.754;2023-01-28T13:43:36;94209.50;;;11.29;32.86
19783;BME280;10051;40.294;-3.754;2023-01-28T13:46:26;94256.56;;;12.04;32.77
19783;BME280;10051;40.294;-3.754;2023-01-28T13:48:55;94218.25;;;11.87;32.41
19783;BME280;10051;40.294;-3.754;2023-01-28T13:51:25;94252.06;;;12.04;32.98
19783;BME280;10051;40.294;-3.754;2023-01-28T13:54:09;94251.63;;;12.16;33.00
19783;BME280;10051;40.294;-3.754;2023-01-28T13:57:05;94231.31;;;11.98;32.71
19783;BME280;10051;40.294;-3.754;2023-01-28T13:59:43;94241.00;;;12.02;33.28
19783;BME280;10051;40.294;-3.754;2023-01-28T14:02:29;94233.59;;;12.24;33.15
19783;BME280;10051;40.294;-3.754;2023-01-28T14:05:29;94241.16;;;11.92;33.43
19783;BME280;10051;40.294;-3.754;2023-01-28T14:13:49;94231.56;;;11.77;33.41
19783;BME280;10051;40.294;-3.754;2023-01-28T14:18:52;94219.31;;;11.48;34.33
19783;BME280;10051;40.294;-3.754;2023-01-28T14:21:19;94183.72;;;11.51;33.99
19783;BME280;10051;40.294;-3.754;2023-01-28T14:23:54;94139.72;;;11.32;34.50
19783;BME280;10051;40.294;-3.754;2023-01-28T14:27:04;94233.91;;;12.03;33.25
19783;BME280;10051;40.294;-3.754;2023-01-28T14:32:36;94208.72;;;11.92;32.83
19783;BME280;10051;40.294;-3.754;2023-01-28T14:35:09;94235.03;;;12.16;32.36
19783;BME280;10051;40.294;-3.754;2023-01-28T14:37:40;94242.00;;;12.26;32.37
19783;BME280;10051;40.294;-3.754;2023-01-28T14:40:07;94232.38;;;12.35;32.53
19783;BME280;10051;40.294;-3.754;2023-01-28T14:42:43;94240.59;;;12.33;32.11